Time;durP1;ratioP1;P1;durP2;ratioP2;P2;SDS_P1;SDS_P2;PMS_P1;PMS_P2;Temp;Humidity;BMP_temperature;BMP_pressure;BME280_temperature;BME280_humidity;BME280_pressure;Samples;Min_cycle;Max_cycle;Signal;HPM_P1;HPM_P2
2022/11/10 00:00:18;;;;;;;20.70;4.50;;;9.80;99.90;;;;;;4900896;29;20060;-81
2022/11/10 00:02:44;;;;;;;18.88;4.68;;;9.80;99.90;;;;;;4891967;29;20119;-80
2022/11/10 00:05:11;;;;;;;17.33;4.85;;;9.80;99.90;;;;;;4901118;29;20462;-80
2022/11/10 00:07:37;;;;;;;26.98;4.72;;;10.10;99.90;;;;;;4879842;29;20144;-80
2022/11/10 00:10:04;;;;;;;23.27;4.45;;;9.70;99.90;;;;;;4901391;29;20491;-81
2022/11/10 00:12:31;;;;;;;18.75;4.53;;;9.70;99.90;;;;;;4881029;29;20039;-80
2022/11/10 00:17:42;;;;;;;14.63;3.85;;;9.70;99.90;;;;;;4919579;29;20046;-80
2022/11/10 00:20:08;;;;;;;19.65;4.60;;;9.70;99.90;;;;;;4887927;29;20114;-81
2022/11/10 00:22:35;;;;;;;20.13;4.78;;;9.60;99.90;;;;;;4904214;29;20087;-80
2022/11/10 00:25:01;;;;;;;16.42;4.25;;;9.60;99.90;;;;;;4903948;29;20429;-80
2022/11/10 00:27:27;;;;;;;12.70;3.95;;;9.60;99.90;;;;;;4903856;29;20047;-80
2022/11/10 00:29:52;;;;;;;17.02;4.55;;;9.60;99.90;;;;;;4900419;29;20476;-80
2022/11/10 00:32:18;;;;;;;15.90;4.18;;;9.60;99.90;;;;;;4885460;29;20044;-80
2022/11/10 00:34:44;;;;;;;18.98;4.50;;;9.60;99.90;;;;;;4907024;29;20028;-80
2022/11/10 00:37:10;;;;;;;14.15;4.18;;;9.60;99.90;;;;;;4919017;29;20448;-80
2022/11/10 00:39:35;;;;;;;19.83;4.75;;;9.70;99.90;;;;;;4919560;29;20048;-80
2022/11/10 00:42:02;;;;;;;20.58;4.60;;;9.60;99.90;;;;;;4903694;29;20840;-81
2022/11/10 00:44:27;;;;;;;16.58;5.15;;;9.60;99.90;;;;;;4903881;29;20047;-81
2022/11/10 00:46:53;;;;;;;20.20;4.90;;;9.60;99.90;;;;;;4884768;29;20036;-81
2022/11/10 00:49:19;;;;;;;21.58;5.65;;;9.60;99.90;;;;;;4876800;29;20493;-81
2022/11/10 00:51:44;;;;;;;18.92;4.50;;;9.60;99.90;;;;;;4917063;29;20055;-81
2022/11/10 00:54:10;;;;;;;25.80;6.05;;;9.50;99.90;;;;;;4922771;29;20058;-81
2022/11/10 00:56:35;;;;;;;17.67;4.80;;;10.00;99.90;;;;;;4938447;29;20046;-80
2022/11/10 00:59:01;;;;;;;17.20;4.78;;;9.60;99.90;;;;;;4938470;29;20503;-81
2022/11/10 01:01:27;;;;;;;19.05;4.68;;;9.90;99.90;;;;;;4922793;29;20664;-81
2022/11/10 01:03:53;;;;;;;16.33;4.70;;;9.50;99.90;;;;;;4921997;29;20039;-80
2022/11/10 01:06:20;;;;;;;18.70;5.15;;;9.60;99.90;;;;;;4937588;29;20035;-80
2022/11/10 01:08:46;;;;;;;17.48;4.78;;;9.50;99.90;;;;;;4954027;29;20051;-80
2022/11/10 01:11:15;;;;;;;19.15;4.68;;;9.50;99.90;;;;;;4937978;28;20432;-80
2022/11/10 01:13:43;;;;;;;21.42;4.57;;;9.50;99.90;;;;;;4953843;29;20098;-80
2022/11/10 01:16:30;;;;;;;20.15;4.60;;;9.50;99.90;;;;;;4923147;29;20456;-80
2022/11/10 01:18:59;;;;;;;14.38;4.40;;;9.40;99.90;;;;;;4918941;29;20050;-81
2022/11/10 01:21:27;;;;;;;13.60;4.22;;;9.40;99.90;;;;;;4947049;29;20043;-81
2022/11/10 01:23:53;;;;;;;16.98;3.85;;;9.50;99.90;;;;;;4937739;29;20039;-80
2022/11/10 01:26:19;;;;;;;17.73;4.15;;;9.40;99.90;;;;;;4938190;29;20039;-81
2022/11/10 01:28:45;;;;;;;14.32;4.20;;;9.40;99.90;;;;;;4954137;29;20043;-81
2022/11/10 01:31:13;;;;;;;11.85;3.30;;;9.40;99.90;;;;;;4937560;29;20475;-80
2022/11/10 01:33:39;;;;;;;13.98;3.65;;;9.40;99.90;;;;;;4953415;29;20039;-80
2022/11/10 01:36:07;;;;;;;11.25;3.00;;;9.50;99.90;;;;;;4921928;29;20043;-81
2022/11/10 01:38:35;;;;;;;13.63;3.33;;;9.40;99.90;;;;;;4937999;29;20071;-80
2022/11/10 01:41:02;;;;;;;11.38;3.13;;;9.70;99.90;;;;;;4937938;29;20047;-80
2022/11/10 01:43:28;;;;;;;13.18;3.83;;;9.50;99.90;;;;;;4950883;29;20051;-80
2022/11/10 01:46:05;;;;;;;15.45;3.35;;;9.50;99.90;;;;;;4948096;29;20046;-81
2022/11/10 01:48:50;;;;;;;14.48;3.45;;;9.50;99.90;;;;;;4937952;29;20047;-80
2022/11/10 01:51:22;;;;;;;17.38;4.28;;;9.50;99.90;;;;;;4953460;29;20048;-80
2022/11/10 01:54:14;;;;;;;12.43;4.03;;;9.50;99.90;;;;;;4953935;29;20412;-80
2022/11/10 01:56:44;;;;;;;17.23;4.10;;;9.60;99.90;;;;;;4936773;29;20058;-80
2022/11/10 01:59:14;;;;;;;18.30;5.13;;;9.60;99.90;;;;;;4938157;29;20055;-80
2022/11/10 02:01:40;;;;;;;18.60;5.05;;;9.60;99.90;;;;;;4953871;29;20054;-81
2022/11/10 02:04:10;;;;;;;14.57;4.63;;;9.60;99.90;;;;;;4938187;29;20039;-80
2022/11/10 02:06:40;;;;;;;16.20;5.07;;;9.60;99.90;;;;;;4970461;29;20207;-81
2022/11/10 02:09:06;;;;;;;20.13;4.95;;;9.70;99.90;;;;;;4958703;29;20050;-80
2022/11/10 02:11:33;;;;;;;17.58;5.88;;;9.70;99.90;;;;;;4932128;29;20047;-80
2022/11/10 02:13:59;;;;;;;18.63;5.88;;;9.70;99.90;;;;;;4946072;29;20151;-80
2022/11/10 02:16:25;;;;;;;17.42;5.25;;;9.70;99.90;;;;;;4939366;29;20391;-80
2022/11/10 02:18:51;;;;;;;21.15;5.38;;;9.80;99.90;;;;;;4922014;29;20492;-80
2022/11/10 02:21:19;;;;;;;20.23;6.18;;;9.70;99.90;;;;;;4921556;29;20043;-81
2022/11/10 02:23:50;;;;;;;24.33;7.10;;;9.80;99.90;;;;;;4938481;29;20047;-80
2022/11/10 02:26:26;;;;;;;23.10;6.35;;;9.80;99.90;;;;;;4956789;29;20035;-80
2022/11/10 02:28:52;;;;;;;18.80;6.32;;;9.70;99.90;;;;;;4939886;29;20039;-80
2022/11/10 02:31:17;;;;;;;20.67;6.07;;;9.70;99.90;;;;;;4924926;29;20050;-80
2022/11/10 02:33:43;;;;;;;15.48;6.53;;;9.70;99.90;;;;;;4940995;29;20090;-80
2022/11/10 02:36:09;;;;;;;21.83;6.25;;;9.90;99.90;;;;;;4956821;29;20074;-81
2022/11/10 02:38:35;;;;;;;24.80;6.90;;;9.80;99.90;;;;;;4924986;29;20074;-81
2022/11/10 02:41:01;;;;;;;29.23;6.78;;;9.70;99.90;;;;;;4924813;29;20043;-81
2022/11/10 02:43:27;;;;;;;22.65;6.43;;;9.70;99.90;;;;;;4937106;29;20039;-80
2022/11/10 02:45:53;;;;;;;20.90;6.72;;;9.70;99.90;;;;;;4932968;29;20057;-82
2022/11/10 02:48:19;;;;;;;27.38;7.57;;;9.70;99.90;;;;;;4924548;29;20488;-81
2022/11/10 02:50:45;;;;;;;22.42;7.15;;;9.70;99.90;;;;;;4955662;29;20047;-80
2022/11/10 02:53:11;;;;;;;23.83;7.45;;;9.70;99.90;;;;;;4924901;29;20598;-81
2022/11/10 02:55:36;;;;;;;29.35;7.35;;;9.70;99.90;;;;;;4921977;29;20102;-80
2022/11/10 02:58:02;;;;;;;25.88;7.05;;;9.70;99.90;;;;;;4931249;29;20050;-81
2022/11/10 03:00:28;;;;;;;18.70;6.35;;;9.70;99.90;;;;;;4908114;29;20461;-81
2022/11/10 03:03:01;;;;;;;20.67;7.22;;;9.70;99.90;;;;;;4924432;29;20050;-81
2022/11/10 03:05:28;;;;;;;24.02;6.65;;;9.70;99.90;;;;;;4940429;29;20122;-80
2022/11/10 03:08:01;;;;;;;29.83;7.90;;;9.70;99.90;;;;;;4940839;29;20503;-81
2022/11/10 03:10:28;;;;;;;23.98;7.07;;;9.70;99.90;;;;;;4940359;29;20041;-81
2022/11/10 03:12:59;;;;;;;23.77;7.13;;;9.70;99.90;;;;;;4956247;29;20400;-81
2022/11/10 03:15:25;;;;;;;23.23;7.47;;;9.70;99.90;;;;;;4956332;29;20046;-81
2022/11/10 03:17:51;;;;;;;31.63;7.28;;;9.70;99.90;;;;;;4956125;29;20039;-81
2022/11/10 03:20:17;;;;;;;20.00;6.18;;;9.70;99.90;;;;;;4956227;29;20102;-81
2022/11/10 03:22:44;;;;;;;22.52;6.95;;;9.70;99.90;;;;;;4939981;29;20130;-80
2022/11/10 03:25:10;;;;;;;17.27;6.47;;;9.70;99.90;;;;;;4923826;29;20042;-81
2022/11/10 03:27:36;;;;;;;20.90;6.85;;;9.70;99.90;;;;;;4939726;29;20043;-81
2022/11/10 03:30:03;;;;;;;23.65;7.18;;;9.60;99.90;;;;;;4923876;29;20400;-81
2022/11/10 03:32:29;;;;;;;21.35;6.40;;;9.60;99.90;;;;;;4920631;29;20048;-81
2022/11/10 03:34:55;;;;;;;26.15;6.82;;;9.70;99.90;;;;;;4934990;29;20050;-81
2022/11/10 03:37:20;;;;;;;25.98;7.00;;;9.60;99.90;;;;;;4923782;29;20047;-80
2022/11/10 03:39:46;;;;;;;22.73;6.50;;;9.60;99.90;;;;;;4923823;29;20126;-80
2022/11/10 03:42:12;;;;;;;24.17;6.90;;;9.60;99.90;;;;;;4939317;29;20039;-80
2022/11/10 03:44:37;;;;;;;21.90;6.13;;;9.50;99.90;;;;;;4923971;29;20043;-81
2022/11/10 03:47:03;;;;;;;19.00;6.18;;;9.50;99.90;;;;;;4923916;29;20403;-81
2022/11/10 03:49:29;;;;;;;22.95;6.40;;;9.60;99.90;;;;;;4923718;29;20476;-81
2022/11/10 03:51:55;;;;;;;18.13;6.03;;;9.50;99.90;;;;;;4920306;29;20385;-80
2022/11/10 03:54:21;;;;;;;25.42;6.97;;;9.50;99.90;;;;;;4922162;29;20055;-80
2022/11/10 03:56:47;;;;;;;24.33;6.78;;;9.50;99.90;;;;;;4903867;29;20524;-81
2022/11/10 03:59:13;;;;;;;28.05;6.20;;;9.50;99.90;;;;;;4939175;29;20118;-81
2022/11/10 04:01:38;;;;;;;29.20;6.47;;;9.60;99.90;;;;;;4939673;29;20043;-81
2022/11/10 04:08:57;;;;;;;25.83;5.93;;;9.60;99.90;;;;;;4923439;29;20459;-81
2022/11/10 04:09:34;;;;;;;22.25;6.25;;;9.50;99.90;;;;;;4955018;29;20047;-80
2022/11/10 04:17:30;;;;;;;21.38;6.22;;;9.60;99.90;;;;;;4941619;29;20051;-80
2022/11/10 04:19:55;;;;;;;27.40;6.03;;;9.60;99.90;;;;;;4923710;29;20047;-81
2022/11/10 04:23:25;;;;;;;25.08;6.88;;;9.60;99.90;;;;;;4923004;29;20191;-81
2022/11/10 04:25:07;;;;;;;18.60;7.07;;;9.60;99.90;;;;;;4941181;29;20058;-80
2022/11/10 04:27:33;;;;;;;21.92;6.75;;;9.60;99.90;;;;;;4938226;29;20283;-81
2022/11/10 04:29:58;;;;;;;25.25;7.15;;;9.60;99.90;;;;;;4922861;29;20385;-80
2022/11/10 04:32:24;;;;;;;30.65;7.57;;;9.60;99.90;;;;;;4922848;29;20105;-80
2022/11/10 04:34:50;;;;;;;33.40;7.82;;;9.60;99.90;;;;;;4923044;29;20090;-81
2022/11/10 04:37:16;;;;;;;32.45;8.02;;;9.60;99.90;;;;;;4938499;29;20043;-80
2022/11/10 04:39:41;;;;;;;25.98;7.55;;;10.10;99.90;;;;;;4922805;29;20039;-81
2022/11/10 04:42:07;;;;;;;22.65;8.13;;;9.60;99.90;;;;;;4922242;29;20031;-80
2022/11/10 04:44:33;;;;;;;30.00;7.50;;;9.60;99.90;;;;;;4922779;29;20063;-81
2022/11/10 04:46:58;;;;;;;27.83;8.10;;;9.60;99.90;;;;;;4938065;29;20054;-81
2022/11/10 04:49:24;;;;;;;25.02;8.55;;;9.60;99.90;;;;;;4938975;29;20102;-81
2022/11/10 04:51:50;;;;;;;33.63;8.00;;;9.60;99.90;;;;;;4922649;29;20130;-80
2022/11/10 04:54:15;;;;;;;26.73;7.80;;;9.60;99.90;;;;;;4938941;29;20043;-80
2022/11/10 04:56:41;;;;;;;31.92;8.38;;;9.60;99.90;;;;;;4922762;29;20480;-81
2022/11/10 04:59:07;;;;;;;27.85;8.60;;;9.60;99.90;;;;;;4907116;29;20054;-81
2022/11/10 05:01:32;;;;;;;29.13;8.57;;;9.70;99.90;;;;;;4938180;29;20129;-81
2022/11/10 05:03:58;;;;;;;31.45;7.78;;;9.60;99.90;;;;;;4922549;29;20787;-81
2022/11/10 05:06:24;;;;;;;25.70;8.50;;;9.70;99.90;;;;;;4937991;29;20102;-81
2022/11/10 05:08:50;;;;;;;31.23;9.10;;;9.70;99.90;;;;;;4922783;29;20045;-81
2022/11/10 05:11:16;;;;;;;27.60;8.43;;;9.60;99.90;;;;;;4937564;29;20043;-80
2022/11/10 05:13:43;;;;;;;29.48;9.20;;;9.70;99.90;;;;;;4938166;29;20376;-80
2022/11/10 05:16:10;;;;;;;28.20;8.25;;;9.60;99.90;;;;;;4922805;29;20047;-81
2022/11/10 05:18:36;;;;;;;31.95;8.60;;;9.60;99.90;;;;;;4922059;29;20046;-81
2022/11/10 05:21:01;;;;;;;22.83;8.43;;;9.60;99.90;;;;;;4922433;29;20057;-81
2022/11/10 05:23:42;;;;;;;33.00;8.80;;;9.60;99.90;;;;;;4938138;29;20492;-81
2022/11/10 05:26:14;;;;;;;30.95;8.43;;;9.70;99.90;;;;;;4936976;29;20043;-80
2022/11/10 05:28:41;;;;;;;29.30;8.90;;;9.70;99.90;;;;;;4938054;29;20071;-81
2022/11/10 05:31:08;;;;;;;27.80;8.20;;;9.60;99.90;;;;;;4937619;29;20027;-81
2022/11/10 05:33:34;;;;;;;26.42;8.02;;;9.70;99.90;;;;;;4922055;29;20043;-81
2022/11/10 05:36:01;;;;;;;25.42;8.38;;;9.70;99.90;;;;;;4937767;29;20059;-80
2022/11/10 05:38:26;;;;;;;31.55;7.97;;;9.70;99.90;;;;;;4953414;29;20495;-81
2022/11/10 05:40:52;;;;;;;27.58;8.10;;;9.60;99.90;;;;;;4938132;29;20047;-81
2022/11/10 05:43:18;;;;;;;27.70;8.10;;;9.70;99.90;;;;;;4922277;29;20043;-81
2022/11/10 05:45:44;;;;;;;26.75;8.23;;;9.70;99.90;;;;;;4937690;29;20046;-81
2022/11/10 05:48:10;;;;;;;23.42;7.50;;;9.60;99.90;;;;;;4922266;29;20036;-81
2022/11/10 05:50:35;;;;;;;28.02;8.10;;;9.60;99.90;;;;;;4906215;29;20046;-81
2022/11/10 05:53:01;;;;;;;34.85;8.73;;;9.60;99.90;;;;;;4937035;29;20055;-81
2022/11/10 05:55:28;;;;;;;29.77;8.38;;;9.60;99.90;;;;;;4937748;29;20050;-80
2022/11/10 05:57:55;;;;;;;23.15;7.65;;;9.60;99.90;;;;;;4937955;29;20035;-81
2022/11/10 06:00:27;;;;;;;26.40;8.40;;;9.60;99.90;;;;;;4924085;29;20051;-81
2022/11/10 06:03:02;;;;;;;22.60;8.23;;;9.60;99.90;;;;;;4916804;29;20050;-81
2022/11/10 06:05:30;;;;;;;27.48;8.75;;;9.60;99.90;;;;;;4926883;29;20046;-81
2022/11/10 06:07:56;;;;;;;28.92;8.13;;;9.60;99.90;;;;;;4942399;29;20058;-81
2022/11/10 06:10:22;;;;;;;27.70;8.50;;;9.60;99.90;;;;;;4926193;29;20039;-81
2022/11/10 06:12:48;;;;;;;24.48;8.93;;;9.60;99.90;;;;;;4960712;29;20039;-81
2022/11/10 06:15:14;;;;;;;33.70;8.38;;;9.80;99.90;;;;;;4963526;29;20034;-81
2022/11/10 06:17:40;;;;;;;23.13;8.02;;;9.50;99.90;;;;;;4943879;29;20051;-80
2022/11/10 06:20:06;;;;;;;22.73;8.90;;;9.50;99.90;;;;;;4926300;29;20044;-81
2022/11/10 06:22:32;;;;;;;19.67;8.45;;;9.50;99.90;;;;;;4923310;29;20554;-80
2022/11/10 06:24:58;;;;;;;29.08;8.90;;;9.50;99.90;;;;;;4941337;29;20043;-80
2022/11/10 06:27:24;;;;;;;31.40;8.05;;;9.50;99.90;;;;;;4941563;29;20506;-80
2022/11/10 06:29:49;;;;;;;31.52;9.38;;;9.50;99.90;;;;;;4925906;29;20039;-80
2022/11/10 06:32:15;;;;;;;23.50;8.80;;;9.50;99.90;;;;;;4922153;29;20048;-82
2022/11/10 06:34:41;;;;;;;31.10;8.70;;;9.50;99.90;;;;;;4907079;29;20453;-80
2022/11/10 06:37:07;;;;;;;21.90;8.73;;;9.50;99.90;;;;;;4941063;29;20102;-81
2022/11/10 06:39:32;;;;;;;27.33;9.43;;;9.50;99.90;;;;;;4925619;29;20196;-81
2022/11/10 06:41:58;;;;;;;32.72;9.25;;;9.50;99.90;;;;;;4906665;29;20035;-81
2022/11/10 06:44:24;;;;;;;33.17;9.60;;;9.50;99.90;;;;;;4937496;29;20126;-82
2022/11/10 06:46:51;;;;;;;29.92;9.30;;;9.60;99.90;;;;;;4940881;29;20455;-82
2022/11/10 06:49:16;;;;;;;23.13;9.48;;;9.50;99.90;;;;;;4936566;29;20127;-81
2022/11/10 06:51:42;;;;;;;27.45;9.35;;;9.50;99.90;;;;;;4954940;29;20111;-81
2022/11/10 06:54:08;;;;;;;24.15;9.13;;;9.50;99.90;;;;;;4924612;29;20126;-81
2022/11/10 06:56:34;;;;;;;25.42;10.43;;;9.50;99.90;;;;;;4925294;29;20550;-82
2022/11/10 06:59:00;;;;;;;27.08;10.07;;;9.50;99.90;;;;;;4924594;29;20582;-81
2022/11/10 07:01:25;;;;;;;38.65;9.85;;;9.50;99.90;;;;;;4940166;29;20043;-81
2022/11/10 07:03:52;;;;;;;24.05;9.65;;;9.50;99.90;;;;;;4925206;29;20082;-82
2022/11/10 07:06:19;;;;;;;25.02;10.38;;;9.50;99.90;;;;;;4937204;29;20044;-82
2022/11/10 07:08:45;;;;;;;24.92;9.90;;;9.50;99.90;;;;;;4938228;29;20047;-81
2022/11/10 07:11:11;;;;;;;33.72;9.70;;;9.50;99.90;;;;;;4936560;29;20079;-82
2022/11/10 07:13:37;;;;;;;29.15;10.52;;;9.50;99.90;;;;;;4921425;29;20528;-81
2022/11/10 07:16:07;;;;;;;22.67;9.85;;;9.50;99.90;;;;;;4920833;29;20050;-81
2022/11/10 07:18:36;;;;;;;27.50;10.60;;;9.50;99.90;;;;;;4955145;29;20071;-81
2022/11/10 07:21:03;;;;;;;34.47;9.80;;;9.60;99.90;;;;;;4956091;29;20078;-82
2022/11/10 07:23:30;;;;;;;24.98;10.35;;;9.60;99.90;;;;;;4955979;29;20046;-82
2022/11/10 07:25:57;;;;;;;25.70;9.60;;;9.60;99.90;;;;;;4908526;29;20039;-81
2022/11/10 07:28:23;;;;;;;21.95;9.68;;;9.60;99.90;;;;;;4939977;29;20040;-81
2022/11/10 07:30:49;;;;;;;30.90;9.57;;;9.70;99.90;;;;;;4954893;29;20555;-84
2022/11/10 07:33:14;;;;;;;29.77;9.60;;;9.70;99.90;;;;;;4939700;29;20122;-82
2022/11/10 07:35:40;;;;;;;24.58;9.07;;;9.70;99.90;;;;;;4939316;29;20051;-81
2022/11/10 07:38:11;;;;;;;27.92;10.18;;;9.70;99.90;;;;;;4924033;29;20062;-79
2022/11/10 07:40:37;;;;;;;26.85;10.02;;;9.80;99.90;;;;;;4933516;29;20404;-81
2022/11/10 07:43:03;;;;;;;22.85;9.82;;;9.80;99.90;;;;;;4936330;29;20043;-81
2022/11/10 07:45:30;;;;;;;24.13;8.48;;;10.00;99.90;;;;;;4909276;29;20036;-79
2022/11/10 07:48:00;;;;;;;27.42;9.98;;;9.80;99.90;;;;;;4955974;29;20047;-80
2022/11/10 07:50:26;;;;;;;32.22;9.63;;;9.80;99.90;;;;;;4923365;29;20111;-80
2022/11/10 07:52:52;;;;;;;26.30;8.30;;;9.80;99.90;;;;;;4923600;29;20060;-79
2022/11/10 07:55:18;;;;;;;25.45;8.30;;;9.90;99.90;;;;;;4908081;29;20055;-81
2022/11/10 07:57:43;;;;;;;26.33;9.95;;;9.90;99.90;;;;;;4907409;29;20055;-80
2022/11/10 08:00:11;;;;;;;22.35;8.00;;;9.90;99.90;;;;;;4914546;29;20117;-79
2022/11/10 08:02:37;;;;;;;25.42;8.75;;;10.00;99.90;;;;;;4939615;29;20051;-80
2022/11/10 08:05:03;;;;;;;27.13;8.55;;;10.20;99.90;;;;;;4907942;29;20050;-80
2022/11/10 08:07:29;;;;;;;25.80;8.23;;;10.10;99.90;;;;;;4922893;29;20125;-80
2022/11/10 08:09:55;;;;;;;24.35;7.75;;;10.10;99.90;;;;;;4938354;29;20558;-80
2022/11/10 08:12:21;;;;;;;22.60;7.38;;;10.20;99.90;;;;;;4938355;29;20043;-80
2022/11/10 08:14:46;;;;;;;33.72;7.93;;;10.20;99.90;;;;;;4938538;29;20043;-80
2022/11/10 08:17:12;;;;;;;23.23;7.30;;;10.30;99.90;;;;;;4923109;29;20051;-79
2022/11/10 08:19:38;;;;;;;25.25;7.50;;;10.30;99.90;;;;;;4940777;29;20127;-80
2022/11/10 08:22:03;;;;;;;32.45;7.50;;;10.40;99.90;;;;;;4939670;29;20077;-80
2022/11/10 08:24:29;;;;;;;22.17;6.72;;;10.50;99.90;;;;;;4923470;29;20055;-82
2022/11/10 08:26:55;;;;;;;19.77;6.15;;;10.60;99.90;;;;;;4921937;29;20487;-82
2022/11/10 08:29:24;;;;;;;20.42;6.65;;;10.70;99.90;;;;;;4935419;29;20047;-82
2022/11/10 08:31:50;;;;;;;20.27;6.90;;;10.80;99.90;;;;;;4919748;29;20035;-82
2022/11/10 08:34:16;;;;;;;25.10;6.82;;;10.90;99.90;;;;;;4923991;29;20087;-82
2022/11/10 08:36:43;;;;;;;23.58;7.03;;;11.00;99.90;;;;;;4938618;29;20089;-81
2022/11/10 08:39:08;;;;;;;17.05;6.50;;;11.00;99.90;;;;;;4938407;29;20036;-82
2022/11/10 08:41:34;;;;;;;23.20;7.35;;;11.10;99.90;;;;;;4923043;29;20130;-82
2022/11/10 08:44:00;;;;;;;17.92;6.38;;;11.10;99.90;;;;;;4921725;29;20082;-84
2022/11/10 08:46:25;;;;;;;24.10;6.32;;;11.20;99.90;;;;;;4923719;29;20130;-83
2022/11/10 08:48:51;;;;;;;28.10;7.15;;;11.20;99.90;;;;;;4937131;29;20559;-82
2022/11/10 08:51:17;;;;;;;23.30;6.45;;;11.30;99.90;;;;;;4919808;29;20384;-82
2022/11/10 08:53:43;;;;;;;20.55;6.95;;;11.20;99.90;;;;;;4932715;29;20048;-82
2022/11/10 08:56:08;;;;;;;21.60;6.50;;;11.20;99.90;;;;;;4911046;28;20113;-82
2022/11/10 08:58:36;;;;;;;23.45;6.82;;;11.30;99.90;;;;;;4921775;29;20044;-82
2022/11/10 09:01:07;;;;;;;21.90;6.38;;;11.30;99.90;;;;;;4917277;29;20147;-82
2022/11/10 09:03:33;;;;;;;19.63;6.03;;;11.30;99.90;;;;;;4937134;29;20043;-81
2022/11/10 09:05:59;;;;;;;25.85;6.78;;;11.30;99.90;;;;;;4937000;29;20037;-82
2022/11/10 09:08:25;;;;;;;28.58;8.00;;;11.30;99.90;;;;;;4929840;29;20043;-82
2022/11/10 09:10:50;;;;;;;39.80;9.40;;;11.50;99.90;;;;;;4916120;29;20043;-82
2022/11/10 09:13:17;;;;;;;35.72;9.48;;;11.70;99.90;;;;;;4912611;29;20036;-82
2022/11/10 09:15:43;;;;;;;35.50;12.70;;;11.80;99.90;;;;;;4920234;29;20046;-82
2022/11/10 09:18:11;;;;;;;39.47;12.30;;;12.00;99.90;;;;;;4938323;29;20047;-82
2022/11/10 09:20:37;;;;;;;36.95;13.10;;;12.10;99.90;;;;;;4936840;29;20057;-81
2022/11/10 09:23:14;;;;;;;39.08;13.52;;;12.10;99.90;;;;;;4909216;29;20487;-82
2022/11/10 09:25:41;;;;;;;36.13;13.13;;;12.20;99.90;;;;;;4932033;29;20044;-82
2022/11/10 09:28:13;;;;;;;35.15;12.15;;;12.30;99.90;;;;;;4943541;29;20087;-82
2022/11/10 09:30:40;;;;;;;35.50;10.50;;;12.40;99.90;;;;;;4946879;28;20044;-82
2022/11/10 09:33:06;;;;;;;27.83;9.77;;;12.40;99.90;;;;;;4898829;29;20099;-82
2022/11/10 09:35:31;;;;;;;22.20;8.75;;;12.40;99.90;;;;;;4950054;29;20051;-82
2022/11/10 09:37:57;;;;;;;27.48;7.32;;;12.50;99.90;;;;;;4919913;29;20035;-82
2022/11/10 09:40:47;;;;;;;27.48;7.03;;;12.60;99.90;;;;;;4920630;28;20127;-84
2022/11/10 09:43:22;;;;;;;20.83;6.47;;;12.70;99.90;;;;;;4925197;29;20046;-84
2022/11/10 09:45:52;;;;;;;20.00;5.45;;;12.90;99.90;;;;;;4953022;29;20448;-84
2022/11/10 09:48:24;;;;;;;22.23;4.97;;;13.00;99.90;;;;;;4931123;29;20101;-84
2022/11/10 09:51:07;;;;;;;22.75;5.22;;;13.10;99.90;;;;;;4936325;28;20039;-83
2022/11/10 09:53:37;;;;;;;22.58;4.38;;;13.10;99.90;;;;;;4941630;29;20056;-84
2022/11/10 09:56:10;;;;;;;16.55;4.35;;;13.10;99.90;;;;;;4931772;28;20028;-84
2022/11/10 09:58:41;;;;;;;17.30;4.53;;;13.30;99.90;;;;;;4911384;28;20062;-84
2022/11/10 10:01:14;;;;;;;20.08;4.10;;;13.70;99.90;;;;;;4936752;28;20043;-84
2022/11/10 10:03:46;;;;;;;19.13;4.18;;;14.30;99.90;;;;;;4949565;29;20122;-84
2022/11/10 10:06:14;;;;;;;17.88;3.90;;;14.90;99.90;;;;;;4931812;29;20031;-84
2022/11/10 10:09:12;;;;;;;22.08;3.95;;;15.40;99.90;;;;;;4913227;29;20500;-84
2022/11/10 10:12:01;;;;;;;20.50;4.72;;;15.30;99.90;;;;;;4914577;28;20079;-84
2022/11/10 10:14:43;;;;;;;15.50;3.97;;;15.20;99.90;;;;;;4930558;29;20043;-84
2022/11/10 10:17:12;;;;;;;20.02;4.03;;;14.90;99.90;;;;;;4930494;28;20039;-84
2022/11/10 10:20:13;;;;;;;14.85;3.15;;;14.60;99.90;;;;;;4934951;29;20110;-83
2022/11/10 10:23:16;;;;;;;20.67;3.40;;;14.40;99.90;;;;;;4972645;28;20031;-84
2022/11/10 10:25:44;;;;;;;16.10;4.10;;;14.20;99.90;;;;;;4949560;28;20514;-85
2022/11/10 10:28:41;;;;;;;20.15;4.57;;;14.00;99.90;;;;;;4937936;29;20108;-84
2022/11/10 10:31:23;;;;;;;15.55;3.38;;;13.90;99.90;;;;;;4952463;28;20045;-84
2022/11/10 10:33:49;;;;;;;15.55;4.03;;;13.90;99.90;;;;;;4934474;29;20039;-83
2022/11/10 10:36:25;;;;;;;12.85;3.25;;;13.90;99.90;;;;;;4921824;29;20097;-83
2022/11/10 10:38:53;;;;;;;;;;;13.80;99.90;;;;;;4952429;28;20134;-83
2022/11/10 10:41:31;;;;;;;19.08;3.67;;;13.80;99.90;;;;;;4928682;29;19949;-83
2022/11/10 10:43:59;;;;;;;14.48;3.72;;;13.80;99.90;;;;;;4936395;28;20130;-83
2022/11/10 10:46:28;;;;;;;14.38;3.47;;;13.80;99.90;;;;;;4940205;29;20047;-83
2022/11/10 10:49:11;;;;;;;23.00;4.32;;;13.80;99.90;;;;;;4940254;29;20047;-83
2022/11/10 10:51:37;;;;;;;16.00;3.92;;;13.90;99.90;;;;;;4936238;29;20496;-83
2022/11/10 10:54:03;;;;;;;21.65;3.63;;;13.80;99.90;;;;;;4939594;29;20102;-83
2022/11/10 10:56:32;;;;;;;22.50;4.53;;;13.80;99.90;;;;;;4937174;29;20050;-83
2022/11/10 10:59:04;;;;;;;17.80;3.80;;;13.90;99.90;;;;;;4938930;28;20077;-83
2022/11/10 11:01:37;;;;;;;18.67;3.28;;;14.00;99.90;;;;;;4944376;29;20428;-85
2022/11/10 11:04:35;;;;;;;23.38;4.30;;;14.00;99.90;;;;;;4940570;29;20484;-85
2022/11/10 11:07:19;;;;;;;12.73;3.60;;;14.10;99.90;;;;;;4934847;29;20046;-83
2022/11/10 11:09:45;;;;;;;20.25;3.88;;;14.20;99.90;;;;;;4950043;28;21705;-84
2022/11/10 11:12:22;;;;;;;16.52;3.58;;;14.20;99.90;;;;;;4955344;29;20046;-84
2022/11/10 11:15:12;;;;;;;16.67;3.45;;;14.20;99.90;;;;;;4969364;28;20103;-85
2022/11/10 11:17:39;;;;;;;14.68;3.20;;;14.30;99.90;;;;;;4940371;29;20066;-85
2022/11/10 11:20:14;;;;;;;16.52;3.50;;;14.30;99.90;;;;;;4908234;28;20039;-85
2022/11/10 11:22:57;;;;;;;15.57;3.70;;;14.30;99.90;;;;;;4955183;29;20081;-86
2022/11/10 11:25:26;;;;;;;9.00;2.85;;;14.40;99.90;;;;;;4932559;28;20122;-85
2022/11/10 11:28:29;;;;;;;19.60;3.20;;;14.50;99.90;;;;;;4942872;28;20480;-84
2022/11/10 11:31:16;;;;;;;9.32;2.85;;;14.50;99.90;;;;;;4946467;29;20078;-84
2022/11/10 11:34:02;;;;;;;17.83;3.53;;;14.40;99.90;;;;;;4955277;28;20049;-84
2022/11/10 11:36:50;;;;;;;17.92;4.03;;;14.30;99.90;;;;;;4938956;29;20047;-84
2022/11/10 11:39:33;;;;;;;15.70;3.10;;;14.30;99.90;;;;;;4938854;29;20049;-83
2022/11/10 11:42:08;;;;;;;20.63;3.17;;;14.30;99.90;;;;;;4940267;29;20135;-86
2022/11/10 11:45:00;;;;;;;18.35;4.10;;;14.20;99.90;;;;;;4955783;28;20031;-82
2022/11/10 11:47:34;;;;;;;16.15;3.00;;;14.30;99.90;;;;;;4926956;29;20055;-83
2022/11/10 11:50:09;;;;;;;15.77;2.97;;;14.20;99.90;;;;;;4939545;28;20059;-85
2022/11/10 11:52:43;;;;;;;18.67;3.70;;;14.10;99.90;;;;;;4939219;29;20121;-84
2022/11/10 11:55:30;;;;;;;22.40;3.58;;;14.10;99.90;;;;;;4957533;29;20070;-85
2022/11/10 11:58:04;;;;;;;17.60;2.95;;;14.10;99.90;;;;;;4941119;29;20043;-83
2022/11/10 12:00:59;;;;;;;14.68;3.10;;;14.10;99.90;;;;;;4940206;29;20043;-85
2022/11/10 12:03:52;;;;;;;14.65;3.28;;;14.10;99.90;;;;;;4893601;29;20115;-85
2022/11/10 12:06:34;;;;;;;13.25;2.97;;;14.10;99.90;;;;;;4939709;29;20043;-84
2022/11/10 12:09:09;;;;;;;18.30;3.53;;;14.10;99.90;;;;;;4949069;29;20392;-84
2022/11/10 12:11:47;;;;;;;15.15;2.90;;;14.10;99.90;;;;;;4956489;29;20046;-85
2022/11/10 12:14:18;;;;;;;16.17;3.35;;;14.10;99.90;;;;;;4958920;29;20081;-84
2022/11/10 12:17:09;;;;;;;12.43;2.38;;;14.20;99.90;;;;;;4943550;29;20097;-85
2022/11/10 12:19:47;;;;;;;12.68;2.72;;;14.20;99.90;;;;;;4934376;29;20122;-85
2022/11/10 12:22:38;;;;;;;15.25;2.85;;;14.30;99.90;;;;;;4939106;29;20047;-84
2022/11/10 12:25:22;;;;;;;17.90;2.42;;;14.30;99.90;;;;;;4929504;29;20047;-84
2022/11/10 12:28:20;;;;;;;13.73;2.60;;;14.40;99.90;;;;;;4935240;29;20126;-84
2022/11/10 12:30:48;;;;;;;13.90;3.50;;;14.40;99.90;;;;;;4936053;29;20036;-84
2022/11/10 12:33:33;;;;;;;15.65;2.92;;;14.40;99.90;;;;;;4940189;29;20039;-84
2022/11/10 12:36:02;;;;;;;16.50;3.15;;;14.50;99.90;;;;;;4939856;29;20126;-85
2022/11/10 12:38:43;;;;;;;17.67;2.80;;;14.60;99.90;;;;;;4939023;29;20519;-84
2022/11/10 12:41:19;;;;;;;15.90;2.90;;;14.70;99.90;;;;;;4924824;29;20157;-84
2022/11/10 12:44:01;;;;;;;10.70;2.50;;;14.70;99.90;;;;;;4940293;29;20043;-84
2022/11/10 12:46:27;;;;;;;16.98;2.90;;;14.70;99.90;;;;;;4939865;29;20054;-84
2022/11/10 12:49:18;;;;;;;15.38;2.85;;;14.80;99.90;;;;;;4924515;29;20043;-84
2022/11/10 12:52:02;;;;;;;17.67;3.60;;;14.80;99.90;;;;;;4939406;29;20066;-85
2022/11/10 12:54:28;;;;;;;17.35;3.00;;;14.70;99.90;;;;;;4939406;29;20043;-85
2022/11/10 12:57:00;;;;;;;13.48;3.40;;;14.70;99.90;;;;;;4908643;29;20047;-85
2022/11/10 12:59:30;;;;;;;18.08;3.03;;;14.70;99.90;;;;;;4940682;29;20043;-85
2022/11/10 13:02:17;;;;;;;16.63;2.50;;;14.70;99.90;;;;;;4937658;29;20039;-85
2022/11/10 13:04:43;;;;;;;18.13;3.60;;;14.70;99.90;;;;;;4940184;29;20248;-84
2022/11/10 13:07:10;;;;;;;20.08;3.90;;;14.70;99.90;;;;;;4924212;28;20082;-84